Fulham, United Kingdom
Current Conditions -  °F | °C
As of 1:50 AM on Thursday 18 Dec 2014 (Local Time) from EGWU Reporting Station
Broken Clouds Broken Clouds  
Wind Chill: 13°   Ceiling: 8000
Heat Index: 13°   Visibility: 6mi
Dew Point: 10°   Wind: 17mph
Humidity: 82%   Direction: 270°W
Pressure: 29.8"   Gusts: NA
Location:  51.48°N, 0.2°W
Report Text: EGWU 180150Z AUTO 27015KT 9999 // SCT014/// BKN080/// 13/10 Q1009
Loading
Personal Weather Stations






























Interactive Weather Map New forecast layout! Learn more

10-Day Weather Forecast

Advertisements
Track Severe Weather on mobile